Time;durP1;ratioP1;P1;durP2;ratioP2;P2;SDS_P1;SDS_P2;PMS_P1;PMS_P2;Temp;Humidity;BMP_temperature;BMP_pressure;BME280_temperature;BME280_humidity;BME280_pressure;Samples;Min_cycle;Max_cycle;Signal;HPM_P1;HPM_P2
2023/08/24 00:00:25;;;;;;;3.70;1.50;;;19.70;65.40;;;;;;4972515;28;20142;-76
2023/08/24 00:02:52;;;;;;;3.65;1.40;;;19.70;65.40;;;;;;4970543;28;20130;-76
2023/08/24 00:05:21;;;;;;;3.08;1.30;;;19.50;65.50;;;;;;4963141;28;20478;-76
2023/08/24 00:07:48;;;;;;;2.88;1.33;;;19.50;65.60;;;;;;4951044;28;20062;-76
2023/08/24 00:10:17;;;;;;;3.30;1.20;;;19.40;65.80;;;;;;4951166;28;20044;-76
2023/08/24 00:12:44;;;;;;;3.40;1.40;;;19.40;66.20;;;;;;4954910;28;20933;-76
2023/08/24 00:15:12;;;;;;;3.45;1.45;;;19.30;66.30;;;;;;4967737;28;20103;-76
2023/08/24 00:17:40;;;;;;;3.33;1.30;;;19.30;66.40;;;;;;4969497;28;20055;-76
2023/08/24 00:20:10;;;;;;;3.20;1.30;;;19.30;66.40;;;;;;4964845;28;20051;-76
2023/08/24 00:22:39;;;;;;;4.65;1.35;;;19.20;66.20;;;;;;4965575;28;20055;-76
2023/08/24 00:25:08;;;;;;;2.60;1.10;;;19.20;66.20;;;;;;4964539;28;20051;-76
2023/08/24 00:27:37;;;;;;;3.53;1.33;;;19.20;66.20;;;;;;4958469;28;20050;-76
2023/08/24 00:30:06;;;;;;;2.95;1.10;;;19.10;66.00;;;;;;4948134;28;20498;-77
2023/08/24 00:32:34;;;;;;;2.80;1.40;;;19.00;66.00;;;;;;4969465;28;20130;-76
2023/08/24 00:35:02;;;;;;;4.00;2.22;;;18.90;66.20;;;;;;4968552;28;20048;-76
2023/08/24 00:37:29;;;;;;;2.80;1.30;;;18.90;66.40;;;;;;4951917;28;20043;-76
2023/08/24 00:39:57;;;;;;;4.07;1.35;;;18.80;66.50;;;;;;4951231;28;20063;-76
2023/08/24 00:42:24;;;;;;;3.50;1.20;;;18.80;66.50;;;;;;4968977;28;20054;-76
2023/08/24 00:44:53;;;;;;;2.92;1.00;;;18.80;66.50;;;;;;4970347;28;20047;-76
2023/08/24 00:47:21;;;;;;;2.60;1.20;;;18.80;66.60;;;;;;4952053;28;20618;-76
2023/08/24 00:49:56;;;;;;;3.53;1.10;;;18.70;66.70;;;;;;4956636;28;20489;-76
2023/08/24 00:52:23;;;;;;;2.50;1.00;;;18.70;66.80;;;;;;4951214;28;20043;-76
2023/08/24 00:54:50;;;;;;;2.70;1.13;;;18.70;66.80;;;;;;4962028;28;20604;-76
2023/08/24 00:57:17;;;;;;;3.00;1.00;;;18.70;66.90;;;;;;4953702;28;20130;-76
2023/08/24 00:59:44;;;;;;;3.20;1.33;;;18.70;66.90;;;;;;4967093;28;20265;-76
2023/08/24 01:02:14;;;;;;;2.73;1.00;;;18.60;67.00;;;;;;4942328;28;20581;-76
2023/08/24 01:04:43;;;;;;;3.80;1.10;;;18.60;67.00;;;;;;4958475;28;20047;-76
2023/08/24 01:07:12;;;;;;;3.20;1.10;;;18.60;67.00;;;;;;4951911;28;20055;-77
2023/08/24 01:09:39;;;;;;;3.30;1.30;;;18.60;67.10;;;;;;4966673;28;20059;-77
2023/08/24 01:12:18;;;;;;;2.90;1.10;;;18.60;67.10;;;;;;4934119;28;20562;-76
2023/08/24 01:14:51;;;;;;;3.53;1.20;;;18.50;67.00;;;;;;4966619;28;20052;-76
2023/08/24 01:17:28;;;;;;;3.45;1.25;;;18.40;67.10;;;;;;4966740;28;20059;-76
2023/08/24 01:19:56;;;;;;;3.40;1.10;;;18.30;67.20;;;;;;4945166;28;20055;-76
2023/08/24 01:22:34;;;;;;;3.10;1.20;;;18.20;67.40;;;;;;4969725;28;20078;-77
2023/08/24 01:25:08;;;;;;;2.70;1.10;;;18.20;67.50;;;;;;4950111;28;20048;-77
2023/08/24 01:27:38;;;;;;;3.43;1.10;;;18.10;67.80;;;;;;4970570;28;20063;-77
2023/08/24 01:30:07;;;;;;;4.80;1.40;;;18.10;68.00;;;;;;4950147;28;20075;-76
2023/08/24 01:32:35;;;;;;;3.53;1.50;;;18.10;68.20;;;;;;4958407;28;20079;-76
2023/08/24 01:35:05;;;;;;;3.42;1.63;;;18.10;68.40;;;;;;4957192;28;20055;-76
2023/08/24 01:37:32;;;;;;;4.00;1.73;;;18.00;68.50;;;;;;4963180;28;20043;-76
2023/08/24 01:40:09;;;;;;;3.60;1.70;;;18.00;68.60;;;;;;4971131;28;20167;-76
2023/08/24 01:42:43;;;;;;;5.57;2.10;;;18.00;68.80;;;;;;4959462;28;20111;-76
2023/08/24 01:45:12;;;;;;;4.28;1.90;;;17.90;69.10;;;;;;4996315;28;20058;-76
2023/08/24 01:47:42;;;;;;;4.25;1.90;;;17.80;69.30;;;;;;4962822;28;20154;-77
2023/08/24 01:50:10;;;;;;;5.05;2.17;;;17.80;69.50;;;;;;4952853;28;20106;-77
2023/08/24 01:52:38;;;;;;;3.90;2.23;;;17.80;69.70;;;;;;4951001;28;20078;-76
2023/08/24 01:55:06;;;;;;;4.88;2.35;;;17.80;69.90;;;;;;4933871;28;20203;-76
2023/08/24 01:57:33;;;;;;;4.00;2.20;;;17.80;70.20;;;;;;4934053;28;20077;-77
2023/08/24 02:00:09;;;;;;;4.30;2.40;;;17.80;70.40;;;;;;4951738;28;20095;-76
2023/08/24 02:02:43;;;;;;;4.22;2.03;;;17.80;70.60;;;;;;4958608;28;20083;-76
2023/08/24 02:05:10;;;;;;;4.40;2.33;;;17.80;70.70;;;;;;4990097;28;20059;-76
2023/08/24 02:07:37;;;;;;;5.88;2.58;;;17.80;70.80;;;;;;4968565;28;20059;-76
2023/08/24 02:10:05;;;;;;;6.22;2.60;;;17.80;70.90;;;;;;4968815;28;20050;-76
2023/08/24 02:12:33;;;;;;;4.72;2.10;;;17.80;71.20;;;;;;4950442;28;20135;-76
2023/08/24 02:15:00;;;;;;;5.10;2.22;;;17.80;71.10;;;;;;4953044;28;20050;-76
2023/08/24 02:17:29;;;;;;;5.33;2.70;;;17.80;71.10;;;;;;4952793;28;20137;-76
2023/08/24 02:19:56;;;;;;;4.05;2.20;;;17.80;71.40;;;;;;4953035;28;20634;-77
2023/08/24 02:22:24;;;;;;;5.85;2.88;;;17.80;71.50;;;;;;4952633;28;20093;-76
2023/08/24 02:24:52;;;;;;;6.20;2.50;;;17.80;71.60;;;;;;4954956;28;20103;-76
2023/08/24 02:27:19;;;;;;;4.55;2.50;;;17.80;71.60;;;;;;4947899;28;20050;-76
2023/08/24 02:29:46;;;;;;;5.87;2.60;;;17.80;71.60;;;;;;4965580;28;20126;-76
2023/08/24 02:32:16;;;;;;;7.05;2.83;;;17.80;71.50;;;;;;4947482;28;20047;-76
2023/08/24 02:34:44;;;;;;;5.70;2.70;;;17.80;71.50;;;;;;4966342;28;20155;-76
2023/08/24 02:37:13;;;;;;;5.18;2.80;;;17.80;71.60;;;;;;4942140;28;20602;-77
2023/08/24 02:39:41;;;;;;;5.25;2.70;;;17.80;71.70;;;;;;4968036;28;20062;-76
2023/08/24 02:42:08;;;;;;;6.27;2.80;;;17.80;71.80;;;;;;4966253;28;20055;-76
2023/08/24 02:44:37;;;;;;;21.77;4.00;;;17.80;71.80;;;;;;4944088;28;20091;-76
2023/08/24 02:47:05;;;;;;;20.70;4.43;;;17.80;71.90;;;;;;4970268;28;20154;-77
2023/08/24 02:49:32;;;;;;;12.10;3.70;;;17.80;71.90;;;;;;4948021;28;20865;-77
2023/08/24 02:52:00;;;;;;;9.13;3.55;;;17.80;72.10;;;;;;4947506;28;20129;-76
2023/08/24 02:54:28;;;;;;;8.57;3.43;;;17.80;72.20;;;;;;4947756;28;20055;-77
2023/08/24 02:56:55;;;;;;;8.13;3.17;;;17.80;72.20;;;;;;4956772;28;20490;-76
2023/08/24 02:59:23;;;;;;;6.10;2.85;;;17.80;72.30;;;;;;4974038;28;20074;-76
2023/08/24 03:01:50;;;;;;;5.40;3.10;;;17.80;72.40;;;;;;4971473;28;20047;-77
2023/08/24 03:04:17;;;;;;;6.72;3.00;;;17.80;72.40;;;;;;4972251;28;20138;-76
2023/08/24 03:06:45;;;;;;;6.20;3.17;;;17.80;72.50;;;;;;4972038;28;20131;-76
2023/08/24 03:09:13;;;;;;;6.07;3.13;;;17.80;72.70;;;;;;4953979;28;20130;-77
2023/08/24 03:11:41;;;;;;;6.97;3.50;;;17.80;72.80;;;;;;4946983;28;20510;-76
2023/08/24 03:14:10;;;;;;;6.03;3.45;;;17.80;72.80;;;;;;4941733;28;20056;-76
2023/08/24 03:16:39;;;;;;;7.38;3.67;;;17.80;72.70;;;;;;4944113;28;20047;-76
2023/08/24 03:19:07;;;;;;;6.20;3.40;;;17.80;72.80;;;;;;4958318;28;20118;-77
2023/08/24 03:21:36;;;;;;;6.03;3.13;;;17.80;72.90;;;;;;4985945;28;20122;-76
2023/08/24 03:24:04;;;;;;;6.13;3.00;;;17.80;72.90;;;;;;4959867;28;20059;-77
2023/08/24 03:26:33;;;;;;;5.88;3.10;;;17.80;72.90;;;;;;4960354;28;20058;-77
2023/08/24 03:29:00;;;;;;;6.10;3.28;;;17.80;73.00;;;;;;4957679;28;20151;-76
2023/08/24 03:31:28;;;;;;;5.60;3.00;;;17.70;72.90;;;;;;4973951;28;20710;-76
2023/08/24 03:33:55;;;;;;;6.18;3.33;;;17.70;72.90;;;;;;4955347;28;20884;-76
2023/08/24 03:36:22;;;;;;;6.85;3.30;;;17.70;72.80;;;;;;4947511;28;20053;-77
2023/08/24 03:38:50;;;;;;;7.05;3.45;;;17.70;72.80;;;;;;4971553;28;20138;-76
2023/08/24 03:41:18;;;;;;;7.28;3.00;;;17.70;73.00;;;;;;4954888;28;20054;-77
2023/08/24 03:43:49;;;;;;;7.23;3.20;;;17.70;72.90;;;;;;4968781;28;20055;-76
2023/08/24 03:46:16;;;;;;;6.65;3.28;;;17.60;72.90;;;;;;4963735;28;20055;-76
2023/08/24 03:48:46;;;;;;;7.60;3.20;;;17.60;72.90;;;;;;4952430;28;20051;-76
2023/08/24 03:51:13;;;;;;;5.95;2.88;;;17.60;72.90;;;;;;4942938;28;20115;-76
2023/08/24 03:53:40;;;;;;;7.00;3.05;;;17.60;72.90;;;;;;4951969;28;20095;-76
2023/08/24 03:56:08;;;;;;;5.93;2.90;;;17.60;72.80;;;;;;4963347;28;20058;-76
2023/08/24 03:58:35;;;;;;;6.28;3.03;;;17.50;72.70;;;;;;4954288;28;20047;-77
2023/08/24 04:01:06;;;;;;;4.43;2.80;;;17.50;72.70;;;;;;4954484;28;20062;-76
2023/08/24 04:03:34;;;;;;;4.85;2.90;;;17.50;72.80;;;;;;4964618;28;20051;-76
2023/08/24 04:06:01;;;;;;;6.35;2.97;;;17.50;72.80;;;;;;4955086;28;20058;-76
2023/08/24 04:08:30;;;;;;;6.07;3.07;;;17.50;72.90;;;;;;4954369;28;20047;-76
2023/08/24 04:10:57;;;;;;;9.82;3.33;;;17.40;73.00;;;;;;4970743;28;20059;-76
2023/08/24 04:13:25;;;;;;;6.03;3.33;;;17.40;72.90;;;;;;4954495;28;20469;-76
2023/08/24 04:15:52;;;;;;;8.00;3.30;;;17.40;73.00;;;;;;4953407;28;20058;-76
2023/08/24 04:18:21;;;;;;;6.70;3.05;;;17.40;73.00;;;;;;4939774;28;20529;-76
2023/08/24 04:20:53;;;;;;;6.63;3.40;;;17.40;73.00;;;;;;4965218;28;20056;-76
2023/08/24 04:23:26;;;;;;;6.75;3.47;;;17.40;73.00;;;;;;4952732;28;20059;-77
2023/08/24 04:25:53;;;;;;;5.10;2.70;;;17.40;72.90;;;;;;4959589;28;20052;-77
2023/08/24 04:28:21;;;;;;;4.25;2.55;;;17.30;72.60;;;;;;4951110;28;20503;-76
2023/08/24 04:30:52;;;;;;;6.13;3.30;;;17.30;72.60;;;;;;4951350;28;20131;-77
2023/08/24 04:33:21;;;;;;;6.43;3.40;;;17.20;72.60;;;;;;4963651;28;20062;-77
2023/08/24 04:35:48;;;;;;;7.70;3.50;;;17.20;72.60;;;;;;4954347;28;20054;-76
2023/08/24 04:38:16;;;;;;;6.35;3.40;;;17.20;72.60;;;;;;4964847;28;20170;-77
2023/08/24 04:40:51;;;;;;;6.88;3.45;;;17.20;72.80;;;;;;4965279;28;20146;-76
2023/08/24 04:43:19;;;;;;;6.75;3.38;;;17.10;72.80;;;;;;4969415;28;20054;-76
2023/08/24 04:45:48;;;;;;;7.23;4.07;;;17.10;72.80;;;;;;4963158;28;20498;-77
2023/08/24 04:48:15;;;;;;;6.10;3.03;;;17.00;73.00;;;;;;4969870;28;20059;-76
2023/08/24 04:50:45;;;;;;;6.90;3.30;;;17.00;73.20;;;;;;4953095;28;20479;-77
2023/08/24 04:53:12;;;;;;;6.45;3.20;;;17.00;73.40;;;;;;4953841;28;20063;-76
2023/08/24 04:55:39;;;;;;;7.00;3.67;;;17.00;73.40;;;;;;4970156;28;20062;-76
2023/08/24 04:58:07;;;;;;;6.93;3.57;;;17.00;73.40;;;;;;4969177;28;20122;-76
2023/08/24 05:00:35;;;;;;;6.90;4.00;;;17.00;73.30;;;;;;4960922;28;20467;-76
2023/08/24 05:03:02;;;;;;;6.80;3.72;;;17.00;73.50;;;;;;4968901;28;20544;-76
2023/08/24 05:05:29;;;;;;;7.15;3.50;;;17.00;73.60;;;;;;4959999;28;20048;-77
2023/08/24 05:07:58;;;;;;;6.72;4.00;;;17.00;73.70;;;;;;4957665;28;20127;-77
2023/08/24 05:10:25;;;;;;;7.80;4.10;;;17.00;73.70;;;;;;4954381;28;20149;-77
2023/08/24 05:12:53;;;;;;;7.30;4.05;;;17.00;73.40;;;;;;4969972;28;20138;-76
2023/08/24 05:15:21;;;;;;;6.93;3.83;;;17.00;73.70;;;;;;4966781;28;20142;-76
2023/08/24 05:18:14;;;;;;;7.28;4.43;;;17.00;73.80;;;;;;4972573;28;20162;-77
2023/08/24 05:20:42;;;;;;;9.10;4.15;;;17.00;73.70;;;;;;4939157;28;20106;-77
2023/08/24 05:23:10;;;;;;;9.60;4.60;;;17.00;74.10;;;;;;4969737;28;20149;-77
2023/08/24 05:25:37;;;;;;;7.80;4.10;;;17.00;74.20;;;;;;4970165;28;20054;-77
2023/08/24 05:28:06;;;;;;;7.85;4.38;;;17.00;74.30;;;;;;4971318;28;20465;-77
2023/08/24 05:30:33;;;;;;;9.43;4.20;;;17.00;74.00;;;;;;4971868;28;20054;-78
2023/08/24 05:33:00;;;;;;;9.25;4.50;;;17.00;74.20;;;;;;4968197;28;20130;-77
2023/08/24 05:35:27;;;;;;;8.40;4.50;;;17.00;74.40;;;;;;4954951;28;20595;-77
2023/08/24 05:37:55;;;;;;;7.88;4.75;;;17.00;74.50;;;;;;4964944;28;20051;-77
2023/08/24 05:40:24;;;;;;;6.80;4.35;;;17.00;74.80;;;;;;4972978;28;20566;-77
2023/08/24 05:42:53;;;;;;;8.15;4.53;;;17.00;75.00;;;;;;4953737;28;20130;-77
2023/08/24 05:45:20;;;;;;;11.02;4.30;;;17.10;74.90;;;;;;4964681;28;20059;-77
2023/08/24 05:47:46;;;;;;;8.43;4.10;;;17.10;75.00;;;;;;4971570;28;20051;-77
2023/08/24 05:50:13;;;;;;;7.78;4.45;;;17.10;75.00;;;;;;4961817;28;20058;-76
2023/08/24 05:52:40;;;;;;;7.43;4.50;;;17.10;75.00;;;;;;4960497;28;20579;-77
2023/08/24 05:55:08;;;;;;;8.13;4.50;;;17.10;75.10;;;;;;4969429;28;20138;-77
2023/08/24 05:57:36;;;;;;;9.98;5.10;;;17.10;75.20;;;;;;4975817;28;20074;-77
2023/08/24 06:00:09;;;;;;;11.50;4.60;;;17.10;75.60;;;;;;4969373;28;20166;-77
2023/08/24 06:02:40;;;;;;;10.82;5.18;;;17.10;76.10;;;;;;4973769;28;20097;-77
2023/08/24 06:05:08;;;;;;;7.78;4.50;;;17.10;76.20;;;;;;4963777;28;20058;-77
2023/08/24 06:07:36;;;;;;;9.10;4.70;;;17.10;76.20;;;;;;4962355;28;20215;-77
2023/08/24 06:10:03;;;;;;;9.05;4.55;;;17.20;76.70;;;;;;4966365;28;20577;-77
2023/08/24 06:12:30;;;;;;;7.80;4.27;;;17.20;77.20;;;;;;4970725;28;20161;-77
2023/08/24 06:15:01;;;;;;;9.10;4.80;;;17.20;77.50;;;;;;4982016;28;20146;-77
2023/08/24 06:17:28;;;;;;;11.60;5.43;;;17.20;77.90;;;;;;4968170;28;20963;-76
2023/08/24 06:19:55;;;;;;;10.50;5.07;;;17.20;78.00;;;;;;4969447;28;20134;-76
2023/08/24 06:22:22;;;;;;;8.63;4.80;;;17.20;78.20;;;;;;4973977;28;20061;-76
2023/08/24 06:24:50;;;;;;;8.47;5.07;;;17.30;78.40;;;;;;4995574;28;20061;-76
2023/08/24 06:27:17;;;;;;;10.85;4.57;;;17.30;78.60;;;;;;4973051;28;20059;-76
2023/08/24 06:29:44;;;;;;;9.35;4.63;;;17.40;78.70;;;;;;4974511;28;20528;-76
2023/08/24 06:32:13;;;;;;;10.48;4.90;;;17.40;78.70;;;;;;4967903;28;20050;-77
2023/08/24 06:34:40;;;;;;;7.40;4.20;;;17.50;79.10;;;;;;4971515;28;20067;-78
2023/08/24 06:37:07;;;;;;;7.87;4.50;;;17.50;79.40;;;;;;4969571;28;20075;-79
2023/08/24 06:39:34;;;;;;;7.65;4.10;;;17.50;79.70;;;;;;4966197;28;20044;-79
2023/08/24 06:42:02;;;;;;;9.80;4.78;;;17.60;79.90;;;;;;4966917;28;20130;-79
2023/08/24 06:44:31;;;;;;;9.10;5.05;;;17.60;79.90;;;;;;4944868;28;20047;-78
2023/08/24 06:46:59;;;;;;;9.68;4.65;;;17.70;80.10;;;;;;4980331;28;20077;-79
2023/08/24 06:49:27;;;;;;;9.13;4.60;;;17.80;80.10;;;;;;4970189;28;20052;-78
2023/08/24 06:51:56;;;;;;;9.00;4.97;;;17.80;80.10;;;;;;4960386;28;20089;-78
2023/08/24 06:54:23;;;;;;;9.95;5.25;;;17.80;80.10;;;;;;4949589;28;20055;-78
2023/08/24 06:56:51;;;;;;;10.95;4.90;;;17.80;80.10;;;;;;4972445;28;20055;-80
2023/08/24 06:59:18;;;;;;;14.02;5.88;;;17.90;80.00;;;;;;4970773;28;20138;-77
2023/08/24 07:01:47;;;;;;;9.77;5.77;;;18.00;80.20;;;;;;4960572;28;20134;-77
2023/08/24 07:04:14;;;;;;;10.63;6.07;;;18.00;80.40;;;;;;4973674;28;20094;-77
2023/08/24 07:06:43;;;;;;;11.90;5.85;;;18.00;80.40;;;;;;4959296;28;20524;-78
2023/08/24 07:09:10;;;;;;;11.82;6.22;;;18.00;80.50;;;;;;4966786;28;20126;-79
2023/08/24 07:11:37;;;;;;;11.30;6.18;;;18.10;80.60;;;;;;4968777;28;20880;-77
2023/08/24 07:14:05;;;;;;;13.37;6.20;;;18.20;80.80;;;;;;4949113;28;20072;-78
2023/08/24 07:16:32;;;;;;;11.27;6.38;;;18.20;81.00;;;;;;4967087;28;20062;-78
2023/08/24 07:18:59;;;;;;;11.55;6.07;;;18.30;81.00;;;;;;4969156;28;20158;-78
2023/08/24 07:21:26;;;;;;;11.15;6.00;;;18.30;81.10;;;;;;4942746;28;20191;-78
2023/08/24 07:23:55;;;;;;;12.48;6.72;;;18.40;81.00;;;;;;4962452;28;20489;-78
2023/08/24 07:26:25;;;;;;;11.43;6.93;;;18.50;81.10;;;;;;4970918;28;20066;-81
2023/08/24 07:28:53;;;;;;;11.57;7.38;;;18.50;81.10;;;;;;4963697;28;20047;-77
2023/08/24 07:31:20;;;;;;;13.18;6.50;;;18.60;81.10;;;;;;4975512;28;20129;-79
2023/08/24 07:33:49;;;;;;;13.05;7.50;;;18.60;80.80;;;;;;4978929;28;20134;-80
2023/08/24 07:36:18;;;;;;;12.30;6.60;;;18.70;80.90;;;;;;4968843;28;20051;-80
2023/08/24 07:38:47;;;;;;;12.10;6.87;;;18.70;80.70;;;;;;4971708;28;20051;-79
2023/08/24 07:41:18;;;;;;;18.92;7.30;;;18.80;80.70;;;;;;4975393;28;20154;-81
2023/08/24 07:43:45;;;;;;;15.18;7.07;;;18.80;80.60;;;;;;4982371;28;20114;-79
2023/08/24 07:46:12;;;;;;;13.40;6.63;;;18.90;80.50;;;;;;4954995;28;20054;-78
2023/08/24 07:48:40;;;;;;;11.93;6.85;;;18.90;80.70;;;;;;4960255;28;20198;-78
2023/08/24 07:51:08;;;;;;;12.27;7.73;;;19.00;80.60;;;;;;4970293;28;20107;-78
2023/08/24 07:53:36;;;;;;;22.80;8.30;;;19.10;80.60;;;;;;4969925;28;20138;-78
2023/08/24 07:56:03;;;;;;;13.70;7.30;;;19.10;80.50;;;;;;4970066;28;20529;-78
2023/08/24 07:58:32;;;;;;;12.32;7.57;;;19.20;80.40;;;;;;4970116;28;20103;-77
2023/08/24 08:01:00;;;;;;;14.20;7.85;;;19.20;80.40;;;;;;4976595;28;20043;-78
2023/08/24 08:03:27;;;;;;;13.60;7.70;;;19.30;80.40;;;;;;4969912;28;20066;-78
2023/08/24 08:05:54;;;;;;;13.32;6.90;;;19.40;80.30;;;;;;4971288;28;20047;-77
2023/08/24 08:08:21;;;;;;;11.18;6.47;;;19.40;80.20;;;;;;4968645;28;20134;-77
2023/08/24 08:10:58;;;;;;;13.77;7.03;;;19.50;80.00;;;;;;4974185;28;20134;-78
2023/08/24 08:13:25;;;;;;;11.07;6.60;;;19.50;80.00;;;;;;4957240;28;20059;-77
2023/08/24 08:15:54;;;;;;;11.20;7.20;;;19.50;79.80;;;;;;4958575;28;20087;-78
2023/08/24 08:18:21;;;;;;;12.02;7.07;;;19.70;79.90;;;;;;4962797;28;20086;-78
2023/08/24 08:20:52;;;;;;;11.75;7.07;;;19.70;80.00;;;;;;4968323;28;20081;-79
2023/08/24 08:23:19;;;;;;;10.77;6.38;;;19.70;79.90;;;;;;4966018;28;20048;-80
2023/08/24 08:25:46;;;;;;;13.27;6.78;;;19.90;79.80;;;;;;4972331;28;20474;-80
2023/08/24 08:28:13;;;;;;;14.30;6.30;;;19.90;79.80;;;;;;4967620;28;20059;-80
2023/08/24 08:30:40;;;;;;;11.07;6.90;;;20.00;79.70;;;;;;4967593;28;20051;-79
2023/08/24 08:33:10;;;;;;;11.77;6.05;;;20.00;79.40;;;;;;4974363;28;20055;-80
2023/08/24 08:35:39;;;;;;;11.77;6.32;;;20.10;79.00;;;;;;4983855;28;20545;-80
2023/08/24 08:38:08;;;;;;;13.00;6.05;;;20.20;79.00;;;;;;5005849;28;20051;-80
2023/08/24 08:40:38;;;;;;;10.60;5.90;;;20.30;78.70;;;;;;4982115;28;20485;-80
2023/08/24 08:43:05;;;;;;;14.00;6.32;;;20.30;78.40;;;;;;4984174;28;20509;-80
2023/08/24 08:45:33;;;;;;;11.60;6.78;;;20.40;78.50;;;;;;4966936;28;20142;-78
2023/08/24 08:48:02;;;;;;;12.60;6.85;;;20.50;78.40;;;;;;4967441;28;20054;-78
2023/08/24 08:50:35;;;;;;;12.23;6.80;;;20.50;78.50;;;;;;4967387;28;20074;-78
2023/08/24 08:53:02;;;;;;;11.10;6.07;;;20.60;78.60;;;;;;4970118;28;20517;-78
2023/08/24 08:55:30;;;;;;;9.38;6.28;;;20.60;78.50;;;;;;4952479;28;20055;-78
2023/08/24 08:57:59;;;;;;;11.95;6.60;;;20.70;78.50;;;;;;4974505;28;20150;-79
2023/08/24 09:00:27;;;;;;;12.85;6.65;;;20.80;78.60;;;;;;4971873;28;20134;-80
2023/08/24 09:02:55;;;;;;;11.63;6.55;;;20.90;78.60;;;;;;4965808;28;20119;-79
2023/08/24 09:05:22;;;;;;;10.80;6.23;;;21.00;78.40;;;;;;4971715;28;20048;-79
2023/08/24 09:07:51;;;;;;;12.70;6.78;;;21.00;78.20;;;;;;4970818;28;20536;-79
2023/08/24 09:10:18;;;;;;;11.38;6.60;;;21.10;78.10;;;;;;4963034;28;20130;-79
2023/08/24 09:12:45;;;;;;;11.38;6.88;;;21.10;77.80;;;;;;4968639;28;20141;-79
2023/08/24 09:15:13;;;;;;;11.88;7.28;;;21.30;77.50;;;;;;4957232;28;21012;-79
2023/08/24 09:17:44;;;;;;;12.00;6.97;;;21.30;77.30;;;;;;4982039;28;20062;-78
2023/08/24 09:20:12;;;;;;;13.13;7.63;;;21.40;77.00;;;;;;4989223;28;20793;-79
2023/08/24 09:22:41;;;;;;;30.45;8.60;;;21.40;76.90;;;;;;4971732;28;20059;-79
2023/08/24 09:25:10;;;;;;;13.43;7.25;;;21.50;76.70;;;;;;4971248;28;20102;-78
2023/08/24 09:27:37;;;;;;;14.38;7.55;;;21.50;76.60;;;;;;4977624;28;20076;-77
2023/08/24 09:30:08;;;;;;;10.93;6.40;;;21.60;76.40;;;;;;4962058;28;20066;-78
2023/08/24 09:32:36;;;;;;;12.85;7.53;;;21.60;76.30;;;;;;4968564;28;20515;-84
2023/08/24 09:35:08;;;;;;;10.23;7.00;;;21.70;76.20;;;;;;4969212;28;20187;-84
2023/08/24 09:37:38;;;;;;;12.75;6.68;;;21.70;76.00;;;;;;4950473;28;20071;-84
2023/08/24 09:40:08;;;;;;;58.00;11.30;;;21.80;75.80;;;;;;4969544;28;20169;-87
2023/08/24 09:42:41;;;;;;;29.07;8.70;;;21.80;75.70;;;;;;4969963;28;20077;-84
2023/08/24 09:45:12;;;;;;;12.43;6.60;;;21.90;75.40;;;;;;4989930;28;20051;-83
2023/08/24 09:47:40;;;;;;;12.35;7.38;;;21.90;75.30;;;;;;4951839;28;20051;-84
2023/08/24 09:50:08;;;;;;;19.48;6.63;;;21.90;75.10;;;;;;4965719;28;20509;-84
2023/08/24 09:52:36;;;;;;;16.40;7.18;;;21.90;75.10;;;;;;4965252;28;20077;-84
2023/08/24 09:55:05;;;;;;;11.60;7.10;;;22.00;75.00;;;;;;4967155;28;20052;-84
2023/08/24 09:57:37;;;;;;;12.57;6.35;;;22.00;74.90;;;;;;4967151;28;20058;-84
2023/08/24 10:00:11;;;;;;;10.95;7.07;;;22.00;74.90;;;;;;4952078;28;20186;-84
2023/08/24 10:02:49;;;;;;;10.40;6.80;;;22.10;74.90;;;;;;4967889;28;20055;-84
2023/08/24 10:05:20;;;;;;;9.38;5.53;;;22.10;74.80;;;;;;4952386;28;20059;-85
2023/08/24 10:07:52;;;;;;;10.90;4.80;;;22.10;74.70;;;;;;4946273;28;20047;-84
2023/08/24 10:10:21;;;;;;;14.07;6.43;;;22.10;74.60;;;;;;4962555;28;20059;-85
2023/08/24 10:12:53;;;;;;;13.43;6.90;;;22.10;74.40;;;;;;4963211;28;20059;-85
2023/08/24 10:15:23;;;;;;;9.75;6.05;;;22.20;74.30;;;;;;4951284;28;20138;-84
2023/08/24 10:17:53;;;;;;;11.77;5.82;;;22.20;74.30;;;;;;4964981;28;20054;-84
2023/08/24 10:20:22;;;;;;;22.03;7.13;;;22.20;74.20;;;;;;4967974;28;20501;-84
2023/08/24 10:22:51;;;;;;;12.60;7.20;;;22.20;74.30;;;;;;4975751;28;20425;-84
2023/08/24 10:25:19;;;;;;;12.10;6.93;;;22.30;74.30;;;;;;4986446;28;20150;-85
2023/08/24 10:27:50;;;;;;;11.65;6.90;;;22.30;74.10;;;;;;4983836;28;20111;-85
2023/08/24 10:30:18;;;;;;;12.00;7.40;;;22.30;74.10;;;;;;4971277;28;20060;-83
2023/08/24 10:32:48;;;;;;;10.50;6.97;;;22.30;74.10;;;;;;4961249;28;20058;-84
2023/08/24 10:35:15;;;;;;;10.20;7.03;;;22.30;74.10;;;;;;4971656;28;20059;-83
2023/08/24 10:37:46;;;;;;;13.18;7.10;;;22.40;74.00;;;;;;4979846;28;20057;-85
2023/08/24 10:40:32;;;;;;;7.40;5.03;;;22.40;74.00;;;;;;4969836;28;20055;-85
2023/08/24 10:43:03;;;;;;;11.88;6.70;;;22.50;74.10;;;;;;4961731;28;20066;-86
2023/08/24 10:45:55;;;;;;;12.47;7.20;;;22.50;74.00;;;;;;4961374;28;21076;-86
2023/08/24 10:48:24;;;;;;;7.80;5.00;;;22.50;73.90;;;;;;4973024;28;20051;-86
2023/08/24 10:51:20;;;;;;;9.20;6.10;;;22.50;74.00;;;;;;4953415;28;20059;-86
2023/08/24 10:53:51;;;;;;;15.18;6.75;;;22.50;73.90;;;;;;4937442;28;20067;-84
2023/08/24 10:56:21;;;;;;;11.63;6.90;;;22.50;74.00;;;;;;5000937;28;20170;-84
2023/08/24 10:59:09;;;;;;;10.33;6.80;;;22.50;74.10;;;;;;5004968;28;20056;-82
2023/08/24 11:01:40;;;;;;;6.80;4.90;;;22.50;74.10;;;;;;4969589;28;20062;-83
2023/08/24 11:04:09;;;;;;;11.77;6.55;;;22.60;74.00;;;;;;4968607;28;20060;-82
2023/08/24 11:06:52;;;;;;;12.02;7.15;;;22.60;73.90;;;;;;4987937;28;20134;-82
2023/08/24 11:09:22;;;;;;;10.00;6.70;;;22.60;73.90;;;;;;4978437;28;20422;-84
2023/08/24 11:12:00;;;;;;;14.37;7.40;;;22.60;74.00;;;;;;4962523;28;20564;-85
2023/08/24 11:14:29;;;;;;;9.38;5.72;;;22.60;74.10;;;;;;4973640;28;20099;-85
2023/08/24 11:16:59;;;;;;;12.32;7.53;;;22.70;74.10;;;;;;4961267;28;20597;-85
2023/08/24 11:19:30;;;;;;;13.07;7.93;;;22.70;74.20;;;;;;4971093;28;20884;-86
2023/08/24 11:21:57;;;;;;;10.88;7.53;;;22.70;74.40;;;;;;4981416;28;20142;-85
2023/08/24 11:24:26;;;;;;;11.13;7.30;;;22.80;74.40;;;;;;4947610;28;20506;-86
2023/08/24 11:26:56;;;;;;;12.38;7.82;;;22.80;74.60;;;;;;4979391;28;20083;-85
2023/08/24 11:29:25;;;;;;;9.95;7.50;;;22.80;74.70;;;;;;4971628;28;20151;-84
2023/08/24 11:31:53;;;;;;;12.65;8.68;;;22.80;74.80;;;;;;4971403;28;20608;-85
2023/08/24 11:34:20;;;;;;;11.93;8.27;;;22.90;75.00;;;;;;4954964;28;20134;-85
2023/08/24 11:36:50;;;;;;;12.17;8.73;;;22.90;75.00;;;;;;4960360;28;20128;-84
2023/08/24 11:39:20;;;;;;;10.57;7.55;;;22.90;75.00;;;;;;4985338;28;20051;-82
2023/08/24 11:41:58;;;;;;;11.82;8.63;;;23.00;75.10;;;;;;4976710;28;20055;-85
2023/08/24 11:44:26;;;;;;;11.07;8.30;;;23.00;75.20;;;;;;4968047;28;20100;-84
2023/08/24 11:46:58;;;;;;;9.63;6.10;;;23.10;75.00;;;;;;4987515;28;20051;-85
2023/08/24 11:49:25;;;;;;;13.80;8.33;;;23.10;74.80;;;;;;4974135;28;20055;-85
2023/08/24 11:51:53;;;;;;;11.07;8.60;;;23.10;74.60;;;;;;4987047;28;20594;-83
2023/08/24 11:54:21;;;;;;;13.32;8.48;;;23.10;74.50;;;;;;4940091;28;20055;-84
2023/08/24 11:56:49;;;;;;;10.63;7.65;;;23.20;74.20;;;;;;4971182;28;20153;-86
2023/08/24 11:59:17;;;;;;;12.75;8.30;;;23.20;74.10;;;;;;4970627;28;20059;-84
2023/08/24 12:01:47;;;;;;;8.80;6.43;;;23.20;73.90;;;;;;4968316;28;20059;-85
2023/08/24 12:04:14;;;;;;;12.05;8.30;;;23.30;73.40;;;;;;4951270;28;20048;-85
2023/08/24 12:06:42;;;;;;;14.75;8.43;;;23.30;73.10;;;;;;4951473;28;20056;-86
2023/08/24 12:09:11;;;;;;;11.80;8.48;;;23.30;72.90;;;;;;4951629;28;20581;-85
2023/08/24 12:11:39;;;;;;;11.38;8.05;;;23.30;72.60;;;;;;4935462;28;20051;-83
2023/08/24 12:14:09;;;;;;;12.13;7.83;;;23.30;72.10;;;;;;4977532;28;20054;-84
2023/08/24 12:16:37;;;;;;;10.30;7.57;;;23.30;71.90;;;;;;4972467;28;20051;-83
2023/08/24 12:19:07;;;;;;;13.20;7.82;;;23.30;71.60;;;;;;4970401;28;20110;-84
2023/08/24 12:21:36;;;;;;;10.90;7.22;;;23.30;71.50;;;;;;4957086;28;20059;-82
2023/08/24 12:24:05;;;;;;;9.75;6.82;;;23.30;71.40;;;;;;4970407;28;21105;-81
2023/08/24 12:26:35;;;;;;;11.77;7.80;;;23.40;71.50;;;;;;4969500;28;20139;-85
2023/08/24 12:29:08;;;;;;;9.57;7.03;;;23.40;71.30;;;;;;4954259;28;20429;-82
2023/08/24 12:31:36;;;;;;;9.93;7.30;;;23.40;71.10;;;;;;4954162;28;20126;-85
2023/08/24 12:34:05;;;;;;;13.05;6.78;;;23.40;71.10;;;;;;4969706;28;20063;-85
2023/08/24 12:36:33;;;;;;;11.45;7.57;;;23.50;70.90;;;;;;4970321;28;20055;-83
2023/08/24 12:39:00;;;;;;;11.80;6.90;;;23.50;70.80;;;;;;4969809;28;20525;-84
2023/08/24 12:41:27;;;;;;;9.57;7.03;;;23.50;70.90;;;;;;4969584;28;20059;-84
2023/08/24 12:43:56;;;;;;;9.27;6.40;;;23.50;70.80;;;;;;4965917;28;20055;-84
2023/08/24 12:46:24;;;;;;;10.60;7.03;;;23.60;70.60;;;;;;4965518;28;20059;-84
2023/08/24 12:48:51;;;;;;;9.13;6.65;;;23.60;70.60;;;;;;4966564;28;20469;-84
2023/08/24 12:51:18;;;;;;;11.80;6.37;;;23.60;70.50;;;;;;4960583;28;20122;-84